Time;durP1;ratioP1;P1;durP2;ratioP2;P2;SDS_P1;SDS_P2;PMS_P1;PMS_P2;Temp;Humidity;BMP_temperature;BMP_pressure;BME280_temperature;BME280_humidity;BME280_pressure;Samples;Min_cycle;Max_cycle;Signal;HPM_P1;HPM_P2
2021/12/18 00:01:42;;;;;;;1.50;1.40;;;;;;;;;;7328553;19;153511;-15
2021/12/18 00:04:16;;;;;;;1.50;1.48;;;;;;;;;;7328768;19;161957;-16
2021/12/18 00:06:48;;;;;;;1.40;1.40;;;;;;;;;;7328522;19;162402;-14
2021/12/18 00:09:20;;;;;;;1.35;1.33;;;;;;;;;;7327926;19;154054;-15
2021/12/18 00:11:57;;;;;;;2.00;1.90;;;;;;;;;;7327512;19;153686;-15
2021/12/18 00:14:28;;;;;;;1.77;1.67;;;;;;;;;;7332815;19;162245;-16
2021/12/18 00:17:00;;;;;;;1.70;1.60;;;;;;;;;;7334958;19;162348;-16
2021/12/18 00:19:34;;;;;;;1.65;1.58;;;;;;;;;;7335662;19;153978;-15
2021/12/18 00:22:06;;;;;;;1.55;1.48;;;;;;;;;;7334485;19;153499;-15
2021/12/18 00:24:38;;;;;;;1.60;1.50;;;;;;;;;;7335080;19;161824;-14
2021/12/18 00:27:09;;;;;;;1.80;1.70;;;;;;;;;;7335153;19;162461;-16
2021/12/18 00:29:40;;;;;;;1.45;1.45;;;;;;;;;;7334123;19;153949;-15
2021/12/18 00:32:13;;;;;;;1.63;1.55;;;;;;;;;;7335334;19;153532;-15
2021/12/18 00:34:46;;;;;;;1.87;1.70;;;;;;;;;;7334752;19;162090;-14
2021/12/18 00:37:18;;;;;;;1.65;1.55;;;;;;;;;;7334478;19;162333;-14
2021/12/18 00:39:55;;;;;;;1.70;1.60;;;;;;;;;;7334977;19;154163;-15
2021/12/18 00:42:39;;;;;;;1.70;1.55;;;;;;;;;;7331782;19;153493;-14
2021/12/18 00:45:12;;;;;;;1.50;1.40;;;;;;;;;;7334614;19;162614;-16
2021/12/18 00:47:50;;;;;;;1.50;1.40;;;;;;;;;;7334719;19;162467;-16
2021/12/18 00:50:26;;;;;;;1.67;1.58;;;;;;;;;;7334684;19;154006;-15
2021/12/18 00:53:00;;;;;;;1.35;1.35;;;;;;;;;;7334591;19;153654;-17
2021/12/18 00:55:33;;;;;;;;;;;;;;;;;;7334875;19;161885;-14
2021/12/18 00:58:06;;;;;;;2.83;1.45;;;;;;;;;;7333109;19;162652;-19
2021/12/18 01:00:40;;;;;;;1.52;1.52;;;;;;;;;;7334593;19;154041;-17
2021/12/18 01:03:19;;;;;;;1.30;1.30;;;;;;;;;;7333159;19;153468;-16
2021/12/18 01:05:54;;;;;;;1.30;1.30;;;;;;;;;;7336375;19;161831;-16
2021/12/18 01:08:30;;;;;;;1.58;1.48;;;;;;;;;;7337254;19;162334;-16
2021/12/18 01:11:29;;;;;;;1.48;1.48;;;;;;;;;;7337457;19;153998;-15
2021/12/18 01:14:32;;;;;;;1.60;1.50;;;;;;;;;;7335694;19;153564;-16
2021/12/18 01:22:48;;;;;;;1.50;1.50;;;;;;;;;;7336417;19;153958;-15
2021/12/18 01:25:21;;;;;;;1.42;1.42;;;;;;;;;;7336187;19;153244;-14
2021/12/18 01:27:53;;;;;;;2.60;2.40;;;;;;;;;;7336588;19;161802;-16
2021/12/18 01:30:25;;;;;;;2.70;2.60;;;;;;;;;;7335522;19;162525;-16
2021/12/18 01:32:56;;;;;;;3.13;2.93;;;;;;;;;;7337002;19;153989;-14
2021/12/18 01:35:28;;;;;;;2.70;2.50;;;;;;;;;;7337409;19;153735;-15
2021/12/18 11:36:09;;;;;;;1.73;1.63;;;;;;;;;;7370148;19;132686;-16
2021/12/18 11:38:44;;;;;;;1.60;1.60;;;;;;;;;;7365198;19;153596;-13
2021/12/18 11:41:17;;;;;;;1.80;1.70;;;;;;;;;;7364883;19;161828;-14
2021/12/18 11:43:48;;;;;;;;;;;;;;;;;;7365477;19;162528;-14
2021/12/18 11:46:35;;;;;;;2.03;1.88;;;;;;;;;;7365331;19;154296;-13
2021/12/18 11:49:07;;;;;;;1.48;1.40;;;;;;;;;;7365047;19;153744;-14
2021/12/18 11:51:59;;;;;;;1.60;1.50;;;;;;;;;;7364487;19;162241;-14
2021/12/18 11:54:49;;;;;;;1.67;1.63;;;;;;;;;;7363495;19;162507;-13
2021/12/18 11:57:48;;;;;;;1.55;1.48;;;;;;;;;;7364983;19;153985;-14
2021/12/18 12:00:39;;;;;;;1.63;1.52;;;;;;;;;;7365096;19;153580;-16
2021/12/18 12:03:12;;;;;;;1.85;1.50;;;;;;;;;;7364384;19;161945;-15
2021/12/18 12:05:47;;;;;;;1.70;1.60;;;;;;;;;;7364266;19;162679;-14
2021/12/18 12:08:34;;;;;;;1.38;1.38;;;;;;;;;;7364669;19;154043;-14
2021/12/18 12:11:18;;;;;;;1.30;1.30;;;;;;;;;;7363615;19;153524;-15
2021/12/18 12:14:01;;;;;;;1.70;1.60;;;;;;;;;;7363948;19;161790;-14
2021/12/18 12:16:47;;;;;;;;;;;;;;;;;;7364580;19;162338;-14
2021/12/18 12:19:20;;;;;;;1.73;1.63;;;;;;;;;;7364506;19;154060;-14
2021/12/18 12:21:53;;;;;;;1.30;1.30;;;;;;;;;;7364280;19;153509;-14
2021/12/18 12:24:27;;;;;;;;;;;;;;;;;;7364339;19;161942;-14
2021/12/18 12:27:28;;;;;;;1.85;1.75;;;;;;;;;;7363794;19;162838;-15
2021/12/18 12:30:00;;;;;;;1.50;1.40;;;;;;;;;;7363867;19;154323;-14
2021/12/18 12:32:32;;;;;;;1.67;1.58;;;;;;;;;;7364010;19;153622;-15
2021/12/18 12:35:06;;;;;;;1.48;1.40;;;;;;;;;;7357168;19;162095;-14
2021/12/18 12:37:40;;;;;;;1.30;1.30;;;;;;;;;;7334685;19;162553;-14
2021/12/18 12:40:20;;;;;;;1.30;1.20;;;;;;;;;;7334971;19;153978;-14
2021/12/18 12:43:14;;;;;;;1.38;1.38;;;;;;;;;;7334672;19;153637;-14
2021/12/18 12:45:49;;;;;;;1.52;1.45;;;;;;;;;;7334462;19;162108;-14
2021/12/18 12:48:22;;;;;;;1.30;1.30;;;;;;;;;;7334355;19;162698;-15
2021/12/18 12:50:58;;;;;;;1.23;1.23;;;;;;;;;;7334792;19;154127;-14
2021/12/18 12:53:51;;;;;;;1.58;1.48;;;;;;;;;;7334635;19;153694;-15
2021/12/18 12:56:26;;;;;;;1.30;1.30;;;;;;;;;;7331717;19;161822;-14
2021/12/18 12:59:24;;;;;;;1.20;1.20;;;;;;;;;;7334110;19;162684;-15
2021/12/18 13:01:56;;;;;;;1.48;1.48;;;;;;;;;;7333192;19;154185;-15
2021/12/18 13:04:27;;;;;;;1.50;1.40;;;;;;;;;;7334352;19;153648;-15
2021/12/18 13:07:07;;;;;;;1.25;1.25;;;;;;;;;;7332689;19;162009;-14
2021/12/18 13:09:46;;;;;;;1.23;1.23;;;;;;;;;;7333664;19;162779;-14
2021/12/18 13:12:19;;;;;;;1.10;1.10;;;;;;;;;;7334009;19;153957;-15
2021/12/18 13:14:52;;;;;;;1.20;1.20;;;;;;;;;;7333275;19;153990;-14
2021/12/18 13:17:28;;;;;;;1.20;1.20;;;;;;;;;;7332610;19;162195;-14
2021/12/18 13:20:01;;;;;;;1.40;1.40;;;;;;;;;;7333508;19;162878;-14
2021/12/18 13:22:33;;;;;;;;;;;;;;;;;;7334129;19;153997;-15
2021/12/18 13:25:07;;;;;;;1.33;1.23;;;;;;;;;;7333837;19;153082;-14
2021/12/18 13:27:42;;;;;;;1.42;1.33;;;;;;;;;;7332130;19;162050;-14
2021/12/18 13:30:19;;;;;;;1.30;1.30;;;;;;;;;;7333094;19;162515;-14
2021/12/18 13:32:56;;;;;;;1.30;1.30;;;;;;;;;;7333598;19;154731;-14
2021/12/18 13:35:30;;;;;;;1.38;1.30;;;;;;;;;;7331201;19;153792;-15
2021/12/18 13:38:03;;;;;;;1.40;1.30;;;;;;;;;;7333260;19;162041;-16
2021/12/18 13:40:37;;;;;;;1.02;1.02;;;;;;;;;;7332955;19;162429;-15
2021/12/18 13:43:13;;;;;;;1.10;1.10;;;;;;;;;;7333370;19;153979;-16
2021/12/18 13:45:53;;;;;;;1.17;1.17;;;;;;;;;;7333228;19;153495;-14
2021/12/18 13:48:26;;;;;;;1.20;1.20;;;;;;;;;;7329195;19;161888;-16
2021/12/18 13:51:00;;;;;;;1.15;1.15;;;;;;;;;;7332696;19;162385;-14
2021/12/18 13:53:31;;;;;;;1.20;1.20;;;;;;;;;;7331893;19;154139;-15
2021/12/18 13:56:07;;;;;;;1.10;1.10;;;;;;;;;;7331555;19;154041;-14
2021/12/18 13:58:41;;;;;;;1.60;1.30;;;;;;;;;;7332442;19;161977;-14
2021/12/18 14:01:15;;;;;;;1.40;1.30;;;;;;;;;;7332405;19;162506;-16
2021/12/18 14:03:48;;;;;;;1.10;1.10;;;;;;;;;;7332749;19;153907;-14
2021/12/18 14:06:23;;;;;;;1.50;1.40;;;;;;;;;;7332756;19;153536;-15
2021/12/18 14:08:59;;;;;;;1.30;1.30;;;;;;;;;;7332268;19;161843;-14
2021/12/18 14:11:37;;;;;;;1.25;1.25;;;;;;;;;;7332306;19;162505;-15
2021/12/18 14:14:13;;;;;;;1.23;1.23;;;;;;;;;;7332477;19;154231;-16
2021/12/18 14:16:52;;;;;;;1.20;1.17;;;;;;;;;;7329112;19;153600;-14
2021/12/18 14:19:28;;;;;;;1.02;1.02;;;;;;;;;;7331988;19;163025;-15
2021/12/18 14:22:00;;;;;;;1.10;1.08;;;;;;;;;;7330581;19;162460;-15
2021/12/18 14:24:32;;;;;;;1.33;1.27;;;;;;;;;;7332195;19;154056;-15
2021/12/18 14:27:06;;;;;;;1.38;1.30;;;;;;;;;;7332096;19;153525;-16
2021/12/18 14:29:41;;;;;;;1.10;1.10;;;;;;;;;;7331342;19;161857;-16
2021/12/18 14:32:12;;;;;;;1.10;1.10;;;;;;;;;;7330323;19;162376;-15
2021/12/18 14:34:46;;;;;;;1.17;1.17;;;;;;;;;;7330285;19;153901;-15
2021/12/18 14:37:18;;;;;;;1.30;1.20;;;;;;;;;;7329409;19;153482;-16
2021/12/18 14:39:55;;;;;;;1.35;1.20;;;;;;;;;;7331276;19;161950;-15
2021/12/18 14:42:33;;;;;;;1.38;1.27;;;;;;;;;;7331147;19;162700;-15
2021/12/18 14:45:10;;;;;;;0.98;0.98;;;;;;;;;;7331639;19;153961;-16
2021/12/18 14:47:48;;;;;;;1.05;1.05;;;;;;;;;;7331532;19;153418;-16
2021/12/18 14:50:21;;;;;;;0.82;0.82;;;;;;;;;;7329755;19;162018;-15
2021/12/18 14:53:14;;;;;;;1.52;1.10;;;;;;;;;;7330058;19;162311;-16
2021/12/18 14:55:53;;;;;;;1.00;1.00;;;;;;;;;;7330957;19;153957;-15
2021/12/18 14:58:27;;;;;;;1.10;1.10;;;;;;;;;;7330389;19;153500;-15
2021/12/18 15:01:05;;;;;;;1.10;1.10;;;;;;;;;;7330572;19;161806;-15
2021/12/18 15:03:38;;;;;;;0.95;0.90;;;;;;;;;;7330646;19;162378;-16
2021/12/18 15:06:11;;;;;;;1.08;1.08;;;;;;;;;;7330802;19;154014;-16
2021/12/18 15:08:51;;;;;;;1.13;1.13;;;;;;;;;;7330731;19;153779;-15
2021/12/18 15:11:25;;;;;;;1.40;1.30;;;;;;;;;;7330255;19;161797;-15
2021/12/18 15:13:59;;;;;;;1.05;1.05;;;;;;;;;;7328870;19;162376;-15
2021/12/18 15:16:38;;;;;;;1.00;1.00;;;;;;;;;;7329301;19;154132;-16
2021/12/18 15:19:12;;;;;;;1.00;1.00;;;;;;;;;;7329751;19;153530;-15
2021/12/18 15:21:45;;;;;;;1.20;1.10;;;;;;;;;;7331247;19;161790;-16
2021/12/18 15:24:17;;;;;;;;;;;;;;;;;;7331634;19;162592;-16
2021/12/18 15:26:51;;;;;;;1.02;1.00;;;;;;;;;;7332906;19;154211;-15
2021/12/18 15:29:25;;;;;;;1.95;1.00;;;;;;;;;;7333205;19;153486;-15
2021/12/18 15:31:59;;;;;;;0.90;0.90;;;;;;;;;;7328040;19;161814;-15
2021/12/18 15:34:30;;;;;;;0.90;0.90;;;;;;;;;;7327631;19;162372;-14
2021/12/18 15:37:05;;;;;;;1.23;1.10;;;;;;;;;;7329521;19;154053;-15
2021/12/18 15:39:37;;;;;;;1.10;1.10;;;;;;;;;;7331192;19;153751;-14
2021/12/18 15:42:09;;;;;;;0.90;0.90;;;;;;;;;;7327557;19;162141;-14
2021/12/18 15:44:41;;;;;;;0.90;0.90;;;;;;;;;;7328638;19;162401;-14
2021/12/18 15:47:15;;;;;;;1.08;1.08;;;;;;;;;;7327922;19;153996;-14
2021/12/18 15:49:48;;;;;;;1.20;1.10;;;;;;;;;;7328810;19;153800;-14
2021/12/18 15:52:19;;;;;;;1.10;1.00;;;;;;;;;;7328662;19;161782;-14
2021/12/18 15:54:51;;;;;;;1.08;1.08;;;;;;;;;;7328295;19;162760;-15
2021/12/18 15:57:22;;;;;;;1.15;1.10;;;;;;;;;;7327339;19;154122;-14
2021/12/18 15:59:53;;;;;;;1.83;0.90;;;;;;;;;;7328464;19;153599;-15
2021/12/18 16:02:27;;;;;;;1.20;1.10;;;;;;;;;;7327191;19;161869;-14
2021/12/18 16:04:58;;;;;;;0.90;0.90;;;;;;;;;;7330186;19;162611;-14
2021/12/18 16:07:32;;;;;;;1.00;1.00;;;;;;;;;;7332304;19;154009;-14
2021/12/18 16:10:03;;;;;;;1.00;1.00;;;;;;;;;;7328133;19;153456;-15
2021/12/18 16:12:35;;;;;;;1.08;1.08;;;;;;;;;;7334895;19;161934;-14
2021/12/18 16:15:07;;;;;;;0.88;0.88;;;;;;;;;;7333994;19;162551;-13
2021/12/18 16:17:41;;;;;;;1.27;0.97;;;;;;;;;;7337983;19;154453;-12
2021/12/18 16:20:14;;;;;;;0.90;0.90;;;;;;;;;;7335045;19;153518;-13
2021/12/18 16:22:45;;;;;;;0.90;0.90;;;;;;;;;;7334777;19;161866;-14
2021/12/18 16:25:23;;;;;;;0.85;0.80;;;;;;;;;;7334464;19;163479;-13
2021/12/18 16:27:58;;;;;;;1.10;1.10;;;;;;;;;;7334692;19;154220;-13
2021/12/18 16:30:32;;;;;;;0.93;0.93;;;;;;;;;;7334670;19;153770;-13
2021/12/18 16:33:09;;;;;;;0.85;0.85;;;;;;;;;;7333765;19;161602;-13
2021/12/18 16:35:44;;;;;;;0.90;0.90;;;;;;;;;;7334270;19;162430;-12
2021/12/18 16:41:10;;;;;;;1.10;0.98;;;;;;;;;;7334085;19;153237;-14
2021/12/18 16:43:42;;;;;;;1.67;1.10;;;;;;;;;;7338118;19;161931;-13
2021/12/18 16:46:15;;;;;;;1.00;1.00;;;;;;;;;;7333866;19;162296;-14
2021/12/18 16:48:48;;;;;;;;;;;;;;;;;;7334523;19;153993;-14
2021/12/18 16:51:20;;;;;;;0.93;0.93;;;;;;;;;;7334016;19;153187;-14
2021/12/18 16:53:57;;;;;;;1.10;1.10;;;;;;;;;;7333425;19;162091;-16
2021/12/18 16:56:40;;;;;;;1.00;1.00;;;;;;;;;;7333989;19;162531;-15
2021/12/18 16:59:15;;;;;;;1.10;1.10;;;;;;;;;;7330727;19;154206;-16
2021/12/18 17:01:46;;;;;;;1.02;1.02;;;;;;;;;;7333858;19;153746;-16
2021/12/18 17:04:23;;;;;;;1.10;1.00;;;;;;;;;;7333959;19;161994;-15
2021/12/18 17:06:57;;;;;;;1.10;1.10;;;;;;;;;;7333647;19;162634;-16
2021/12/18 17:09:33;;;;;;;0.88;0.88;;;;;;;;;;7333979;19;153991;-16
2021/12/18 17:12:08;;;;;;;1.40;1.13;;;;;;;;;;7333557;19;153648;-15
2021/12/18 17:14:47;;;;;;;1.20;1.20;;;;;;;;;;7333450;19;161907;-16
2021/12/18 17:17:24;;;;;;;1.00;1.00;;;;;;;;;;7332793;19;162430;-15
2021/12/18 17:20:02;;;;;;;1.17;1.17;;;;;;;;;;7333576;19;154379;-15
2021/12/18 17:22:39;;;;;;;1.05;1.05;;;;;;;;;;7332682;19;153521;-15
2021/12/18 17:25:14;;;;;;;1.00;1.00;;;;;;;;;;7332949;19;161945;-16
2021/12/18 17:27:49;;;;;;;1.08;1.02;;;;;;;;;;7333036;19;162553;-16
2021/12/18 17:30:29;;;;;;;1.35;1.25;;;;;;;;;;7333022;19;153963;-16
2021/12/18 17:33:00;;;;;;;1.13;1.10;;;;;;;;;;7336051;19;153672;-14
2021/12/18 17:35:39;;;;;;;1.23;1.10;;;;;;;;;;7332055;19;162021;-15
2021/12/18 17:38:11;;;;;;;1.67;1.17;;;;;;;;;;7333742;19;162495;-16
2021/12/18 17:40:42;;;;;;;1.42;1.08;;;;;;;;;;7333515;19;154142;-16
2021/12/18 17:43:22;;;;;;;1.30;1.20;;;;;;;;;;7332800;19;153775;-25
2021/12/18 17:45:54;;;;;;;1.58;1.10;;;;;;;;;;7335295;19;161908;-15
2021/12/18 17:48:30;;;;;;;1.17;1.15;;;;;;;;;;7332340;19;162441;-15
2021/12/18 17:51:08;;;;;;;1.20;1.17;;;;;;;;;;7332863;19;153924;-15
2021/12/18 17:53:40;;;;;;;1.23;1.20;;;;;;;;;;7332663;19;153739;-15
2021/12/18 17:56:12;;;;;;;1.60;1.50;;;;;;;;;;7332290;19;161985;-15
2021/12/18 17:58:43;;;;;;;1.67;1.58;;;;;;;;;;7333683;19;162491;-16
2021/12/18 18:01:16;;;;;;;1.30;1.20;;;;;;;;;;7332643;19;154349;-14
2021/12/18 18:03:47;;;;;;;1.35;1.25;;;;;;;;;;7332485;19;153957;-15
2021/12/18 18:06:21;;;;;;;1.10;1.10;;;;;;;;;;7332005;19;161899;-15
2021/12/18 18:08:54;;;;;;;1.60;1.50;;;;;;;;;;7332174;19;162687;-16
2021/12/18 18:11:25;;;;;;;1.50;1.50;;;;;;;;;;7335433;19;154289;-15
2021/12/18 18:13:58;;;;;;;1.45;1.35;;;;;;;;;;7332166;19;153675;-16
2021/12/18 18:16:29;;;;;;;1.60;1.50;;;;;;;;;;7331855;19;161742;-16
2021/12/18 18:19:01;;;;;;;1.30;1.30;;;;;;;;;;7330372;19;162684;-16
2021/12/18 18:21:35;;;;;;;1.30;1.30;;;;;;;;;;7332069;19;154108;-15
2021/12/18 18:24:06;;;;;;;1.80;1.70;;;;;;;;;;7331853;19;153726;-15
2021/12/18 18:26:38;;;;;;;1.50;1.50;;;;;;;;;;7331603;19;161938;-15
2021/12/18 18:29:09;;;;;;;1.70;1.60;;;;;;;;;;7331263;19;162370;-15
2021/12/18 18:31:40;;;;;;;1.70;1.60;;;;;;;;;;7331806;19;153992;-15
2021/12/18 18:34:11;;;;;;;1.50;1.40;;;;;;;;;;7329314;19;153565;-15
2021/12/18 18:36:45;;;;;;;1.50;1.40;;;;;;;;;;7331166;19;162091;-16
2021/12/18 18:39:17;;;;;;;1.60;1.50;;;;;;;;;;7328276;19;162572;-15
2021/12/18 18:41:48;;;;;;;2.47;2.28;;;;;;;;;;7331510;19;154093;-15
2021/12/18 18:44:23;;;;;;;1.70;1.60;;;;;;;;;;7331453;19;153501;-15
2021/12/18 18:47:01;;;;;;;2.00;1.90;;;;;;;;;;7331010;19;161820;-15
2021/12/18 18:49:34;;;;;;;1.77;1.67;;;;;;;;;;7330889;19;162529;-16
2021/12/18 18:52:08;;;;;;;1.87;1.77;;;;;;;;;;7331024;19;154653;-15
2021/12/18 18:54:41;;;;;;;1.48;1.45;;;;;;;;;;7333545;19;153617;-15
2021/12/18 18:57:12;;;;;;;1.90;1.80;;;;;;;;;;7334844;19;161849;-15
2021/12/18 18:59:44;;;;;;;1.80;1.70;;;;;;;;;;7328770;19;162376;-14
2021/12/18 19:02:17;;;;;;;1.90;1.80;;;;;;;;;;7330810;19;153957;-15
2021/12/18 19:04:48;;;;;;;;;;;;;;;;;;7330196;19;153590;-15
2021/12/18 19:07:22;;;;;;;1.73;1.63;;;;;;;;;;7330562;19;162009;-16
2021/12/18 19:09:53;;;;;;;1.92;1.83;;;;;;;;;;7330350;19;162371;-15
2021/12/18 19:12:24;;;;;;;1.80;1.70;;;;;;;;;;7332041;19;154127;-13
2021/12/18 19:14:55;;;;;;;2.03;1.92;;;;;;;;;;7333975;19;153650;-14
2021/12/18 19:17:27;;;;;;;1.80;1.70;;;;;;;;;;7330035;19;161666;-15
2021/12/18 19:20:05;;;;;;;2.05;1.95;;;;;;;;;;7328220;19;162544;-15
2021/12/18 19:22:41;;;;;;;2.00;1.90;;;;;;;;;;7335036;19;153936;-14
2021/12/18 19:25:14;;;;;;;1.88;1.77;;;;;;;;;;7330011;19;153618;-15
2021/12/18 19:27:46;;;;;;;2.20;2.10;;;;;;;;;;7329683;19;162104;-14
2021/12/18 19:30:21;;;;;;;2.38;2.28;;;;;;;;;;7329642;19;162607;-13
2021/12/18 19:32:53;;;;;;;2.28;2.17;;;;;;;;;;7329957;19;153996;-14
2021/12/18 19:35:28;;;;;;;2.00;1.90;;;;;;;;;;7327698;19;153624;-13
2021/12/18 19:38:04;;;;;;;1.90;1.80;;;;;;;;;;7328063;19;162517;-15
2021/12/18 19:40:35;;;;;;;2.10;1.90;;;;;;;;;;7327026;19;162671;-22
2021/12/18 19:43:08;;;;;;;2.10;2.00;;;;;;;;;;7328814;19;154239;-16
2021/12/18 19:45:39;;;;;;;2.33;2.13;;;;;;;;;;7330947;19;153559;-20
2021/12/18 19:48:11;;;;;;;2.33;1.85;;;;;;;;;;7335998;19;161893;-15
2021/12/18 19:50:42;;;;;;;2.13;2.03;;;;;;;;;;7335908;19;162568;-15
2021/12/18 19:53:16;;;;;;;1.83;1.73;;;;;;;;;;7336145;19;153976;-14
2021/12/18 19:55:47;;;;;;;2.17;2.08;;;;;;;;;;7336171;19;153652;-15
2021/12/18 19:58:18;;;;;;;2.00;1.90;;;;;;;;;;7335691;19;162048;-13
2021/12/18 20:00:51;;;;;;;2.83;2.63;;;;;;;;;;7333613;19;162359;-14
2021/12/18 20:06:06;;;;;;;2.53;2.33;;;;;;;;;;7335254;19;155033;-15
2021/12/18 20:08:40;;;;;;;2.25;2.13;;;;;;;;;;7335836;19;161844;-15
2021/12/18 20:11:13;;;;;;;2.15;2.05;;;;;;;;;;7335131;19;162432;-15
2021/12/18 20:13:45;;;;;;;2.30;2.10;;;;;;;;;;7337591;19;154128;-15
2021/12/18 20:16:16;;;;;;;2.40;2.20;;;;;;;;;;7337796;19;153564;-13
2021/12/18 20:18:49;;;;;;;2.00;1.90;;;;;;;;;;7338986;19;161836;-14
2021/12/18 20:21:20;;;;;;;2.07;1.97;;;;;;;;;;7331705;19;162558;-15
2021/12/18 20:23:54;;;;;;;2.08;1.98;;;;;;;;;;7336786;19;154021;-14
2021/12/18 20:26:25;;;;;;;2.00;1.90;;;;;;;;;;7337077;19;153264;-15
2021/12/18 20:28:57;;;;;;;1.77;1.70;;;;;;;;;;7337162;19;161843;-14
2021/12/18 20:31:28;;;;;;;2.15;2.05;;;;;;;;;;7336869;19;162732;-16
2021/12/18 20:33:59;;;;;;;2.13;2.03;;;;;;;;;;7335654;19;154032;-15
2021/12/18 20:36:31;;;;;;;1.98;1.88;;;;;;;;;;7337758;19;153691;-15
2021/12/18 20:39:05;;;;;;;4.78;4.07;;;;;;;;;;7336921;19;162561;-15
2021/12/18 20:41:37;;;;;;;3.55;3.25;;;;;;;;;;7335461;19;162529;-15
2021/12/18 20:44:09;;;;;;;;;;;;;;;;;;7336574;19;153957;-14
2021/12/18 20:46:41;;;;;;;2.00;1.90;;;;;;;;;;7336951;19;153491;-15
2021/12/18 20:49:13;;;;;;;2.38;2.00;;;;;;;;;;7336950;19;161920;-18
2021/12/18 20:51:45;;;;;;;1.95;1.85;;;;;;;;;;7337266;19;162716;-14
2021/12/18 20:54:23;;;;;;;2.28;2.10;;;;;;;;;;7334721;19;153975;-14
2021/12/18 20:56:56;;;;;;;2.17;2.08;;;;;;;;;;7336095;19;153500;-16
2021/12/18 20:59:27;;;;;;;2.25;2.15;;;;;;;;;;7336365;19;161846;-15
2021/12/18 21:02:02;;;;;;;2.10;2.00;;;;;;;;;;7334527;19;162662;-14
2021/12/18 21:04:38;;;;;;;2.03;1.90;;;;;;;;;;7337285;19;154010;-14
2021/12/18 21:07:13;;;;;;;2.30;2.20;;;;;;;;;;7335688;19;153531;-15
2021/12/18 21:09:50;;;;;;;2.13;2.03;;;;;;;;;;7336425;19;161939;-15
2021/12/18 21:12:24;;;;;;;2.03;1.92;;;;;;;;;;7335686;19;162474;-16
2021/12/18 21:15:14;;;;;;;2.15;2.05;;;;;;;;;;7337475;19;153945;-15
2021/12/18 21:17:50;;;;;;;2.33;1.90;;;;;;;;;;7336933;19;153847;-15
2021/12/18 21:20:26;;;;;;;1.73;1.63;;;;;;;;;;7334395;19;161867;-15
2021/12/18 21:22:57;;;;;;;1.63;1.55;;;;;;;;;;7335925;19;162337;-16
2021/12/18 21:25:35;;;;;;;1.90;1.80;;;;;;;;;;7336706;19;154268;-15
2021/12/18 21:28:12;;;;;;;2.22;1.95;;;;;;;;;;7335663;19;153454;-15
2021/12/18 21:30:46;;;;;;;1.90;1.80;;;;;;;;;;7334670;19;162097;-14
2021/12/18 21:33:25;;;;;;;2.17;2.08;;;;;;;;;;7336517;19;162534;-15
2021/12/18 21:38:46;;;;;;;2.03;1.92;;;;;;;;;;7336572;19;153803;-13
2021/12/18 21:41:21;;;;;;;;;;;;;;;;;;7335080;19;161856;-14
2021/12/18 21:43:55;;;;;;;1.70;1.65;;;;;;;;;;7334891;19;162544;-18
2021/12/18 21:46:26;;;;;;;2.00;1.90;;;;;;;;;;7335118;19;154371;-15
2021/12/18 21:48:58;;;;;;;2.17;1.90;;;;;;;;;;7335048;19;153664;-14
2021/12/18 21:51:30;;;;;;;2.22;2.13;;;;;;;;;;7335421;19;161817;-14
2021/12/18 21:54:01;;;;;;;2.63;1.88;;;;;;;;;;7334618;19;162429;-14
2021/12/18 21:56:40;;;;;;;2.40;2.20;;;;;;;;;;7334222;19;154069;-14
2021/12/18 21:59:17;;;;;;;1.85;1.75;;;;;;;;;;7335717;19;153521;-15
2021/12/18 22:01:49;;;;;;;1.73;1.63;;;;;;;;;;7333682;19;164218;-14
2021/12/18 22:04:27;;;;;;;1.90;1.80;;;;;;;;;;7335262;19;162439;-15
2021/12/18 22:07:03;;;;;;;1.83;1.73;;;;;;;;;;7335970;19;154281;-14
2021/12/18 22:09:36;;;;;;;3.20;3.00;;;;;;;;;;7332713;19;153706;-14
2021/12/18 22:12:11;;;;;;;2.35;2.20;;;;;;;;;;7334515;19;161942;-15
2021/12/18 22:14:43;;;;;;;2.55;2.40;;;;;;;;;;7334537;19;162554;-15
2021/12/18 22:17:14;;;;;;;2.00;1.90;;;;;;;;;;7335264;19;153778;-15
2021/12/18 22:19:46;;;;;;;2.15;2.05;;;;;;;;;;7335682;19;153506;-15
2021/12/18 22:22:18;;;;;;;2.25;2.15;;;;;;;;;;7330243;19;161573;-15
2021/12/18 22:24:50;;;;;;;2.58;2.35;;;;;;;;;;7334157;19;162457;-15
2021/12/18 22:27:26;;;;;;;2.13;2.03;;;;;;;;;;7334421;19;154099;-15
2021/12/18 22:29:58;;;;;;;2.15;2.05;;;;;;;;;;7334516;19;153766;-14
2021/12/18 22:32:29;;;;;;;2.20;2.10;;;;;;;;;;7334347;19;161921;-15
2021/12/18 22:35:05;;;;;;;2.00;1.90;;;;;;;;;;7332620;19;162323;-14
2021/12/18 22:37:38;;;;;;;1.90;1.80;;;;;;;;;;7334217;19;154151;-18
2021/12/18 22:40:12;;;;;;;2.10;2.00;;;;;;;;;;7334294;19;153658;-21
2021/12/18 22:42:50;;;;;;;1.88;1.77;;;;;;;;;;7332150;19;161782;-15
2021/12/18 22:45:21;;;;;;;2.13;2.03;;;;;;;;;;7333842;19;162519;-14
2021/12/18 22:47:55;;;;;;;2.10;2.00;;;;;;;;;;7334042;19;153979;-16
2021/12/18 22:50:29;;;;;;;2.00;1.90;;;;;;;;;;7334743;19;153892;-14
2021/12/18 22:53:01;;;;;;;1.80;1.70;;;;;;;;;;7332837;19;161989;-15
2021/12/18 22:55:36;;;;;;;2.17;2.00;;;;;;;;;;7333113;19;162309;-14
2021/12/18 22:58:11;;;;;;;2.03;1.92;;;;;;;;;;7332757;19;153944;-14
2021/12/18 23:01:07;;;;;;;1.80;1.70;;;;;;;;;;7332736;19;153638;-15
2021/12/18 23:03:43;;;;;;;1.90;1.80;;;;;;;;;;7332992;19;161806;-16
2021/12/18 23:06:20;;;;;;;1.60;1.50;;;;;;;;;;7332175;19;162439;-14
2021/12/18 23:08:57;;;;;;;1.77;1.67;;;;;;;;;;7333889;19;153989;-17
2021/12/18 23:11:36;;;;;;;1.65;1.55;;;;;;;;;;7333026;19;153783;-16
2021/12/18 23:14:28;;;;;;;1.90;1.80;;;;;;;;;;7332542;19;161806;-15
2021/12/18 23:17:16;;;;;;;1.90;1.80;;;;;;;;;;7333352;19;162467;-14
2021/12/18 23:22:34;;;;;;;2.03;1.92;;;;;;;;;;7328685;19;154344;-15
2021/12/18 23:25:06;;;;;;;1.73;1.63;;;;;;;;;;7329859;19;162062;-14
2021/12/18 23:27:38;;;;;;;1.70;1.60;;;;;;;;;;7329761;19;162475;-14
2021/12/18 23:30:15;;;;;;;1.73;1.63;;;;;;;;;;7329944;19;153950;-15
2021/12/18 23:32:46;;;;;;;1.85;1.75;;;;;;;;;;7332198;19;153517;-14
2021/12/18 23:35:17;;;;;;;1.73;1.67;;;;;;;;;;7327246;19;161832;-15
2021/12/18 23:37:49;;;;;;;1.90;1.80;;;;;;;;;;7329330;19;162403;-14
2021/12/18 23:40:21;;;;;;;2.15;1.95;;;;;;;;;;7329292;19;154094;-15
2021/12/18 23:42:57;;;;;;;1.98;1.88;;;;;;;;;;7327948;19;153672;-15
2021/12/18 23:48:14;;;;;;;2.10;1.90;;;;;;;;;;7328860;19;162494;-14
2021/12/18 23:50:48;;;;;;;2.13;1.95;;;;;;;;;;7329131;19;153988;-14
2021/12/18 23:53:20;;;;;;;1.80;1.70;;;;;;;;;;7329195;19;153812;-16
2021/12/18 23:55:51;;;;;;;1.48;1.48;;;;;;;;;;7328893;19;162078;-14
2021/12/18 23:58:28;;;;;;;1.50;1.50;;;;;;;;;;7328621;19;162521;-14
